Koslan, Russia
Current Conditions -  °F | °C
As of 3:30 AM on Saturday 20 Dec 2014 (Local Time) from UUYY Reporting Station
Overcast Overcast  
Wind Chill: 19°   Ceiling: 6600
Heat Index: 27°   Visibility: 6mi
Dew Point: 23°   Wind: 7mph
Humidity: 86%   Direction: 180°S
Pressure: 29.59"   Gusts: NA
Location:  63.45°N, 48.9°E
Report Text: UUYY 200030Z 18003MPS 9000 SCT020 OVC066 M03/M05 Q1002 NOSIG1945//39 RMK QFE743/0991
Loading
Personal Weather Stations






























Interactive Weather Map New forecast layout! Learn more

10-Day Weather Forecast

Advertisements
Track Severe Weather on mobile